<?xml version="1.0" encoding="UTF-8" standalone="no" ?>
<gpx xmlns="http://www.topografix.com/GPX/1/1" xmlns:xsi="http://www.w3.org/2001/XMLSchema-instance" xsi:schemaLocation="http://www.topografix.com/GPX/1/1 http://www.topografix.com/GPX/1/1/gpx.xsd" version="1.1" creator="VisuGPX - https://www.visugpx.com">
  <metadata>
    <name>De Meillerie à Salvigny</name>
    <desc><![CDATA[Randonnée en Haute-Savoie]]></desc>
  </metadata>
  <trk>
    <name><![CDATA[ACTIVE LOG: 30 JUL 2015 10:17]]></name>
    <trkseg>
      <trkpt lat="46.08965" lon="6.84073">
        <ele>1024</ele>
        <time>2015-07-30T08:07:26Z</time>
      </trkpt>
      <trkpt lat="46.09057" lon="6.84171">
        <ele>1017</ele>
        <time>2015-07-30T08:08:26Z</time>
      </trkpt>
      <trkpt lat="46.09122" lon="6.84207">
        <ele>1018</ele>
        <time>2015-07-30T08:09:26Z</time>
      </trkpt>
      <trkpt lat="46.09176" lon="6.84278">
        <ele>1016</ele>
        <time>2015-07-30T08:10:26Z</time>
      </trkpt>
      <trkpt lat="46.0926" lon="6.84308">
        <ele>1017</ele>
        <time>2015-07-30T08:11:26Z</time>
      </trkpt>
      <trkpt lat="46.09333" lon="6.8439">
        <ele>1021</ele>
        <time>2015-07-30T08:12:26Z</time>
      </trkpt>
      <trkpt lat="46.09378" lon="6.84472">
        <ele>1024</ele>
        <time>2015-07-30T08:13:26Z</time>
      </trkpt>
      <trkpt lat="46.09418" lon="6.84486">
        <ele>1028</ele>
        <time>2015-07-30T08:14:26Z</time>
      </trkpt>
      <trkpt lat="46.09471" lon="6.84556">
        <ele>1026</ele>
        <time>2015-07-30T08:15:26Z</time>
      </trkpt>
      <trkpt lat="46.09471" lon="6.84556">
        <ele>1026</ele>
        <time>2015-07-30T08:16:26Z</time>
      </trkpt>
      <trkpt lat="46.09469" lon="6.84571">
        <ele>1044.13</ele>
        <time>2015-07-30T08:17:26Z</time>
      </trkpt>
      <trkpt lat="46.09521" lon="6.84581">
        <ele>1047.97</ele>
        <time>2015-07-30T08:18:31Z</time>
      </trkpt>
      <trkpt lat="46.09533" lon="6.84633">
        <ele>1042.21</ele>
        <time>2015-07-30T08:19:36Z</time>
      </trkpt>
      <trkpt lat="46.09546" lon="6.84646">
        <ele>1038.84</ele>
        <time>2015-07-30T08:20:41Z</time>
      </trkpt>
      <trkpt lat="46.09563" lon="6.84694">
        <ele>1035</ele>
        <time>2015-07-30T08:21:46Z</time>
      </trkpt>
      <trkpt lat="46.0959" lon="6.84743">
        <ele>1032.11</ele>
        <time>2015-07-30T08:22:51Z</time>
      </trkpt>
      <trkpt lat="46.0962" lon="6.84795">
        <ele>1030.19</ele>
        <time>2015-07-30T08:23:56Z</time>
      </trkpt>
      <trkpt lat="46.09648" lon="6.84819">
        <ele>1027.31</ele>
        <time>2015-07-30T08:25:01Z</time>
      </trkpt>
      <trkpt lat="46.09707" lon="6.84849">
        <ele>1026.83</ele>
        <time>2015-07-30T08:26:06Z</time>
      </trkpt>
      <trkpt lat="46.09743" lon="6.84886">
        <ele>1024.9</ele>
        <time>2015-07-30T08:27:11Z</time>
      </trkpt>
      <trkpt lat="46.09758" lon="6.84878">
        <ele>1022.5</ele>
        <time>2015-07-30T08:28:16Z</time>
      </trkpt>
      <trkpt lat="46.09786" lon="6.84921">
        <ele>1018.17</ele>
        <time>2015-07-30T08:29:21Z</time>
      </trkpt>
      <trkpt lat="46.09779" lon="6.8494">
        <ele>1013.37</ele>
        <time>2015-07-30T08:30:26Z</time>
      </trkpt>
      <trkpt lat="46.09805" lon="6.84918">
        <ele>1011.44</ele>
        <time>2015-07-30T08:31:31Z</time>
      </trkpt>
      <trkpt lat="46.09842" lon="6.84946">
        <ele>1008.08</ele>
        <time>2015-07-30T08:32:36Z</time>
      </trkpt>
      <trkpt lat="46.09883" lon="6.84971">
        <ele>1006.64</ele>
        <time>2015-07-30T08:33:41Z</time>
      </trkpt>
      <trkpt lat="46.09888" lon="6.85">
        <ele>1002.79</ele>
        <time>2015-07-30T08:34:46Z</time>
      </trkpt>
      <trkpt lat="46.09888" lon="6.85002">
        <ele>1001.35</ele>
        <time>2015-07-30T08:35:51Z</time>
      </trkpt>
    </trkseg>
  </trk>
</gpx>